sensor_id;sensor_type;location;lat;lon;timestamp;P1;durP1;ratioP1;P2;durP2;ratioP2
8698;SDS011;4386;51.236;6.742;2023-02-17T00:00:29;18.52;;;10.88;;
8698;SDS011;4386;51.236;6.742;2023-02-17T00:01:33;17.83;;;12.90;;
8698;SDS011;4386;51.236;6.742;2023-02-17T00:02:38;19.75;;;11.57;;
8698;SDS011;4386;51.236;6.742;2023-02-17T00:04:01;15.80;;;11.05;;
8698;SDS011;4386;51.236;6.742;2023-02-17T00:05:24;20.00;;;11.70;;
8698;SDS011;4386;51.236;6.742;2023-02-17T00:06:46;16.50;;;11.35;;
8698;SDS011;4386;51.236;6.742;2023-02-17T00:08:08;18.95;;;11.70;;
8698;SDS011;4386;51.236;6.742;2023-02-17T00:09:30;16.65;;;11.50;;
8698;SDS011;4386;51.236;6.742;2023-02-17T00:10:56;19.88;;;11.40;;
8698;SDS011;4386;51.236;6.742;2023-02-17T00:12:19;19.30;;;11.35;;
8698;SDS011;4386;51.236;6.742;2023-02-17T00:13:41;18.83;;;11.77;;
8698;SDS011;4386;51.236;6.742;2023-02-17T00:15:03;16.73;;;11.23;;
8698;SDS011;4386;51.236;6.742;2023-02-17T00:16:26;14.93;;;11.43;;
8698;SDS011;4386;51.236;6.742;2023-02-17T00:17:50;18.73;;;10.82;;
8698;SDS011;4386;51.236;6.742;2023-02-17T00:19:12;17.40;;;10.82;;
8698;SDS011;4386;51.236;6.742;2023-02-17T00:20:46;16.80;;;12.10;;
8698;SDS011;4386;51.236;6.742;2023-02-17T00:22:08;16.30;;;12.25;;
8698;SDS011;4386;51.236;6.742;2023-02-17T00:23:30;14.52;;;11.07;;
8698;SDS011;4386;51.236;6.742;2023-02-17T00:24:52;19.58;;;13.27;;
8698;SDS011;4386;51.236;6.742;2023-02-17T00:26:15;18.05;;;12.00;;
8698;SDS011;4386;51.236;6.742;2023-02-17T00:27:37;20.60;;;12.27;;
8698;SDS011;4386;51.236;6.742;2023-02-17T00:29:00;20.50;;;11.40;;
8698;SDS011;4386;51.236;6.742;2023-02-17T00:30:21;19.77;;;11.55;;
8698;SDS011;4386;51.236;6.742;2023-02-17T00:31:44;14.95;;;11.45;;
8698;SDS011;4386;51.236;6.742;2023-02-17T00:33:08;14.27;;;10.13;;
8698;SDS011;4386;51.236;6.742;2023-02-17T00:34:30;16.63;;;10.07;;
8698;SDS011;4386;51.236;6.742;2023-02-17T00:35:53;18.67;;;10.98;;
8698;SDS011;4386;51.236;6.742;2023-02-17T00:37:16;17.75;;;9.85;;
8698;SDS011;4386;51.236;6.742;2023-02-17T00:38:39;17.23;;;10.85;;
8698;SDS011;4386;51.236;6.742;2023-02-17T00:40:01;17.77;;;10.20;;
8698;SDS011;4386;51.236;6.742;2023-02-17T00:41:24;13.23;;;9.30;;
8698;SDS011;4386;51.236;6.742;2023-02-17T00:42:47;17.92;;;11.02;;
8698;SDS011;4386;51.236;6.742;2023-02-17T00:44:11;16.10;;;8.80;;
8698;SDS011;4386;51.236;6.742;2023-02-17T00:45:38;17.65;;;8.90;;
8698;SDS011;4386;51.236;6.742;2023-02-17T00:47:00;13.10;;;9.30;;
8698;SDS011;4386;51.236;6.742;2023-02-17T00:48:24;22.30;;;10.32;;
8698;SDS011;4386;51.236;6.742;2023-02-17T00:49:46;14.68;;;9.43;;
8698;SDS011;4386;51.236;6.742;2023-02-17T00:51:09;12.05;;;8.65;;
8698;SDS011;4386;51.236;6.742;2023-02-17T00:52:31;14.70;;;10.07;;
8698;SDS011;4386;51.236;6.742;2023-02-17T00:53:53;16.38;;;10.13;;
8698;SDS011;4386;51.236;6.742;2023-02-17T00:55:15;19.40;;;10.60;;
8698;SDS011;4386;51.236;6.742;2023-02-17T00:56:37;15.93;;;8.52;;
8698;SDS011;4386;51.236;6.742;2023-02-17T00:57:59;15.45;;;9.88;;
8698;SDS011;4386;51.236;6.742;2023-02-17T00:59:22;14.35;;;8.82;;
8698;SDS011;4386;51.236;6.742;2023-02-17T01:00:43;15.07;;;9.80;;
8698;SDS011;4386;51.236;6.742;2023-02-17T01:02:06;13.38;;;8.80;;
8698;SDS011;4386;51.236;6.742;2023-02-17T01:03:30;15.77;;;9.55;;
8698;SDS011;4386;51.236;6.742;2023-02-17T01:04:52;13.90;;;9.02;;
8698;SDS011;4386;51.236;6.742;2023-02-17T01:06:17;13.25;;;9.68;;
8698;SDS011;4386;51.236;6.742;2023-02-17T01:07:43;12.40;;;9.48;;
8698;SDS011;4386;51.236;6.742;2023-02-17T01:09:07;16.30;;;9.82;;
8698;SDS011;4386;51.236;6.742;2023-02-17T01:10:30;12.18;;;8.63;;
8698;SDS011;4386;51.236;6.742;2023-02-17T01:11:52;15.48;;;10.40;;
8698;SDS011;4386;51.236;6.742;2023-02-17T01:13:15;13.88;;;9.25;;
8698;SDS011;4386;51.236;6.742;2023-02-17T01:19:15;12.00;;;8.90;;
8698;SDS011;4386;51.236;6.742;2023-02-17T01:20:40;12.98;;;9.00;;
8698;SDS011;4386;51.236;6.742;2023-02-17T01:22:02;14.48;;;9.45;;
8698;SDS011;4386;51.236;6.742;2023-02-17T01:23:24;17.63;;;8.95;;
8698;SDS011;4386;51.236;6.742;2023-02-17T01:24:47;15.88;;;9.98;;
8698;SDS011;4386;51.236;6.742;2023-02-17T01:26:12;16.98;;;10.90;;
8698;SDS011;4386;51.236;6.742;2023-02-17T01:27:34;13.23;;;9.40;;
8698;SDS011;4386;51.236;6.742;2023-02-17T01:28:57;14.00;;;9.90;;
8698;SDS011;4386;51.236;6.742;2023-02-17T01:30:20;17.10;;;9.70;;
8698;SDS011;4386;51.236;6.742;2023-02-17T01:31:42;14.38;;;9.70;;
8698;SDS011;4386;51.236;6.742;2023-02-17T01:33:04;11.85;;;9.68;;
8698;SDS011;4386;51.236;6.742;2023-02-17T01:34:28;12.73;;;9.25;;
8698;SDS011;4386;51.236;6.742;2023-02-17T01:35:50;12.32;;;9.32;;
8698;SDS011;4386;51.236;6.742;2023-02-17T01:37:13;12.77;;;9.02;;
8698;SDS011;4386;51.236;6.742;2023-02-17T01:38:36;12.90;;;9.65;;
8698;SDS011;4386;51.236;6.742;2023-02-17T01:39:58;14.68;;;8.60;;
8698;SDS011;4386;51.236;6.742;2023-02-17T01:41:21;12.88;;;9.40;;
8698;SDS011;4386;51.236;6.742;2023-02-17T01:42:46;14.90;;;10.02;;
8698;SDS011;4386;51.236;6.742;2023-02-17T01:44:11;15.20;;;9.77;;
8698;SDS011;4386;51.236;6.742;2023-02-17T01:45:37;13.02;;;8.57;;
8698;SDS011;4386;51.236;6.742;2023-02-17T01:47:08;16.52;;;8.80;;
8698;SDS011;4386;51.236;6.742;2023-02-17T01:48:35;13.40;;;9.32;;
8698;SDS011;4386;51.236;6.742;2023-02-17T01:54:37;21.85;;;9.18;;
8698;SDS011;4386;51.236;6.742;2023-02-17T01:56:04;15.43;;;9.50;;
8698;SDS011;4386;51.236;6.742;2023-02-17T01:57:28;12.13;;;9.18;;
8698;SDS011;4386;51.236;6.742;2023-02-17T01:58:56;11.70;;;8.50;;
8698;SDS011;4386;51.236;6.742;2023-02-17T02:00:23;13.48;;;8.95;;
8698;SDS011;4386;51.236;6.742;2023-02-17T02:01:49;19.50;;;9.15;;
8698;SDS011;4386;51.236;6.742;2023-02-17T02:03:15;11.50;;;8.35;;
8698;SDS011;4386;51.236;6.742;2023-02-17T02:04:38;12.40;;;9.55;;
8698;SDS011;4386;51.236;6.742;2023-02-17T02:10:41;15.45;;;8.80;;
8698;SDS011;4386;51.236;6.742;2023-02-17T02:12:13;12.40;;;9.23;;
8698;SDS011;4386;51.236;6.742;2023-02-17T02:13:37;16.70;;;9.65;;
8698;SDS011;4386;51.236;6.742;2023-02-17T02:15:00;10.80;;;7.60;;
8698;SDS011;4386;51.236;6.742;2023-02-17T02:16:28;11.55;;;8.60;;
8698;SDS011;4386;51.236;6.742;2023-02-17T02:18:04;12.30;;;8.65;;
8698;SDS011;4386;51.236;6.742;2023-02-17T02:19:38;12.98;;;8.38;;
8698;SDS011;4386;51.236;6.742;2023-02-17T02:21:30;10.68;;;8.60;;
8698;SDS011;4386;51.236;6.742;2023-02-17T02:23:24;13.07;;;8.52;;
8698;SDS011;4386;51.236;6.742;2023-02-17T02:25:17;11.25;;;7.50;;
8698;SDS011;4386;51.236;6.742;2023-02-17T02:27:04;10.95;;;8.52;;
8698;SDS011;4386;51.236;6.742;2023-02-17T02:28:51;15.63;;;9.35;;
8698;SDS011;4386;51.236;6.742;2023-02-17T02:30:33;13.38;;;9.25;;
8698;SDS011;4386;51.236;6.742;2023-02-17T02:32:25;10.70;;;8.63;;
8698;SDS011;4386;51.236;6.742;2023-02-17T02:33:59;12.25;;;8.10;;
8698;SDS011;4386;51.236;6.742;2023-02-17T02:39:39;11.40;;;8.15;;
8698;SDS011;4386;51.236;6.742;2023-02-17T02:40:45;12.38;;;8.18;;
8698;SDS011;4386;51.236;6.742;2023-02-17T02:41:52;12.40;;;7.88;;
8698;SDS011;4386;51.236;6.742;2023-02-17T02:42:56;12.23;;;9.32;;
8698;SDS011;4386;51.236;6.742;2023-02-17T02:44:02;11.48;;;7.97;;
8698;SDS011;4386;51.236;6.742;2023-02-17T02:45:06;11.52;;;8.48;;
8698;SDS011;4386;51.236;6.742;2023-02-17T02:46:10;10.13;;;8.25;;
8698;SDS011;4386;51.236;6.742;2023-02-17T02:48:47;14.02;;;8.88;;
8698;SDS011;4386;51.236;6.742;2023-02-17T02:49:51;10.68;;;7.93;;
8698;SDS011;4386;51.236;6.742;2023-02-17T02:50:57;14.50;;;8.85;;
8698;SDS011;4386;51.236;6.742;2023-02-17T02:52:11;9.88;;;8.30;;
8698;SDS011;4386;51.236;6.742;2023-02-17T02:53:34;11.40;;;7.95;;
8698;SDS011;4386;51.236;6.742;2023-02-17T02:54:55;13.77;;;8.35;;
8698;SDS011;4386;51.236;6.742;2023-02-17T02:56:04;10.15;;;8.60;;
8698;SDS011;4386;51.236;6.742;2023-02-17T02:57:18;8.48;;;7.50;;
8698;SDS011;4386;51.236;6.742;2023-02-17T02:58:28;12.02;;;8.77;;
8698;SDS011;4386;51.236;6.742;2023-02-17T02:59:46;12.15;;;9.30;;
8698;SDS011;4386;51.236;6.742;2023-02-17T03:01:01;10.32;;;8.63;;
8698;SDS011;4386;51.236;6.742;2023-02-17T03:02:08;14.65;;;8.65;;
8698;SDS011;4386;51.236;6.742;2023-02-17T03:03:23;10.15;;;8.32;;
8698;SDS011;4386;51.236;6.742;2023-02-17T03:04:37;11.77;;;7.70;;
8698;SDS011;4386;51.236;6.742;2023-02-17T03:05:54;12.93;;;8.80;;
8698;SDS011;4386;51.236;6.742;2023-02-17T03:07:02;11.95;;;7.72;;
8698;SDS011;4386;51.236;6.742;2023-02-17T03:08:09;9.98;;;8.10;;
8698;SDS011;4386;51.236;6.742;2023-02-17T03:09:16;9.68;;;8.63;;
8698;SDS011;4386;51.236;6.742;2023-02-17T03:10:21;12.80;;;9.15;;
8698;SDS011;4386;51.236;6.742;2023-02-17T03:11:24;10.75;;;8.75;;
8698;SDS011;4386;51.236;6.742;2023-02-17T03:12:35;12.27;;;8.75;;
8698;SDS011;4386;51.236;6.742;2023-02-17T03:13:39;12.48;;;9.38;;
8698;SDS011;4386;51.236;6.742;2023-02-17T03:14:42;11.15;;;8.90;;
8698;SDS011;4386;51.236;6.742;2023-02-17T03:15:46;10.23;;;8.05;;
8698;SDS011;4386;51.236;6.742;2023-02-17T03:16:48;11.40;;;8.95;;
8698;SDS011;4386;51.236;6.742;2023-02-17T03:17:54;10.40;;;8.63;;
8698;SDS011;4386;51.236;6.742;2023-02-17T03:18:58;9.63;;;8.10;;
8698;SDS011;4386;51.236;6.742;2023-02-17T03:24:14;13.38;;;8.30;;
8698;SDS011;4386;51.236;6.742;2023-02-17T03:25:16;11.02;;;8.85;;
8698;SDS011;4386;51.236;6.742;2023-02-17T03:26:18;10.75;;;8.63;;
8698;SDS011;4386;51.236;6.742;2023-02-17T03:27:21;10.57;;;8.38;;
8698;SDS011;4386;51.236;6.742;2023-02-17T03:28:22;11.32;;;8.80;;
8698;SDS011;4386;51.236;6.742;2023-02-17T03:29:25;11.60;;;8.73;;
8698;SDS011;4386;51.236;6.742;2023-02-17T03:30:26;10.38;;;8.60;;
8698;SDS011;4386;51.236;6.742;2023-02-17T03:31:39;10.50;;;8.50;;
8698;SDS011;4386;51.236;6.742;2023-02-17T03:32:51;12.55;;;9.45;;
8698;SDS011;4386;51.236;6.742;2023-02-17T03:34:06;16.23;;;9.70;;
8698;SDS011;4386;51.236;6.742;2023-02-17T03:35:08;14.50;;;9.77;;
8698;SDS011;4386;51.236;6.742;2023-02-17T03:36:20;9.88;;;8.80;;
8698;SDS011;4386;51.236;6.742;2023-02-17T03:37:23;13.02;;;9.05;;
8698;SDS011;4386;51.236;6.742;2023-02-17T03:38:25;9.88;;;8.60;;
8698;SDS011;4386;51.236;6.742;2023-02-17T03:39:27;11.60;;;9.73;;
8698;SDS011;4386;51.236;6.742;2023-02-17T03:40:29;12.70;;;9.60;;
8698;SDS011;4386;51.236;6.742;2023-02-17T03:41:32;9.05;;;8.15;;
8698;SDS011;4386;51.236;6.742;2023-02-17T03:42:33;13.32;;;9.15;;
8698;SDS011;4386;51.236;6.742;2023-02-17T03:43:36;12.13;;;8.80;;
8698;SDS011;4386;51.236;6.742;2023-02-17T03:44:38;13.50;;;9.25;;
8698;SDS011;4386;51.236;6.742;2023-02-17T03:45:40;9.82;;;8.10;;
8698;SDS011;4386;51.236;6.742;2023-02-17T03:46:42;11.45;;;9.43;;
8698;SDS011;4386;51.236;6.742;2023-02-17T03:47:45;12.70;;;8.70;;
8698;SDS011;4386;51.236;6.742;2023-02-17T03:48:47;12.73;;;9.00;;
8698;SDS011;4386;51.236;6.742;2023-02-17T03:49:51;12.43;;;9.15;;
8698;SDS011;4386;51.236;6.742;2023-02-17T03:50:55;11.35;;;8.98;;
8698;SDS011;4386;51.236;6.742;2023-02-17T03:51:58;17.60;;;10.25;;
8698;SDS011;4386;51.236;6.742;2023-02-17T03:53:10;12.32;;;8.38;;
8698;SDS011;4386;51.236;6.742;2023-02-17T03:54:13;11.07;;;9.20;;
8698;SDS011;4386;51.236;6.742;2023-02-17T03:55:15;12.35;;;9.00;;
8698;SDS011;4386;51.236;6.742;2023-02-17T03:56:17;11.77;;;9.45;;
8698;SDS011;4386;51.236;6.742;2023-02-17T03:57:29;11.68;;;9.05;;
8698;SDS011;4386;51.236;6.742;2023-02-17T03:58:44;11.38;;;9.30;;
8698;SDS011;4386;51.236;6.742;2023-02-17T03:59:56;11.50;;;8.95;;
8698;SDS011;4386;51.236;6.742;2023-02-17T04:00:59;12.43;;;9.30;;
8698;SDS011;4386;51.236;6.742;2023-02-17T04:02:01;10.95;;;9.57;;
8698;SDS011;4386;51.236;6.742;2023-02-17T04:03:04;11.95;;;9.60;;
8698;SDS011;4386;51.236;6.742;2023-02-17T04:04:05;12.32;;;9.40;;
8698;SDS011;4386;51.236;6.742;2023-02-17T04:05:09;12.27;;;9.93;;
8698;SDS011;4386;51.236;6.742;2023-02-17T04:06:11;12.77;;;9.35;;
8698;SDS011;4386;51.236;6.742;2023-02-17T04:07:14;10.35;;;9.05;;
8698;SDS011;4386;51.236;6.742;2023-02-17T04:08:16;13.52;;;9.30;;
8698;SDS011;4386;51.236;6.742;2023-02-17T04:09:18;11.02;;;9.55;;
8698;SDS011;4386;51.236;6.742;2023-02-17T04:10:20;10.80;;;9.23;;
8698;SDS011;4386;51.236;6.742;2023-02-17T04:11:27;14.75;;;9.95;;
8698;SDS011;4386;51.236;6.742;2023-02-17T04:12:29;14.02;;;9.20;;
8698;SDS011;4386;51.236;6.742;2023-02-17T04:13:31;11.50;;;9.68;;
8698;SDS011;4386;51.236;6.742;2023-02-17T04:14:33;13.23;;;9.35;;
8698;SDS011;4386;51.236;6.742;2023-02-17T04:15:36;10.93;;;9.40;;
8698;SDS011;4386;51.236;6.742;2023-02-17T04:16:39;12.02;;;9.75;;
8698;SDS011;4386;51.236;6.742;2023-02-17T04:17:42;11.65;;;9.50;;
8698;SDS011;4386;51.236;6.742;2023-02-17T04:18:43;11.73;;;9.63;;
8698;SDS011;4386;51.236;6.742;2023-02-17T04:19:46;12.07;;;9.50;;
8698;SDS011;4386;51.236;6.742;2023-02-17T04:20:49;11.55;;;9.63;;
8698;SDS011;4386;51.236;6.742;2023-02-17T04:21:53;12.93;;;9.35;;
8698;SDS011;4386;51.236;6.742;2023-02-17T04:23:04;14.30;;;10.25;;
8698;SDS011;4386;51.236;6.742;2023-02-17T04:24:17;15.48;;;10.63;;
8698;SDS011;4386;51.236;6.742;2023-02-17T04:25:19;18.02;;;9.80;;
8698;SDS011;4386;51.236;6.742;2023-02-17T04:26:21;11.52;;;9.60;;
8698;SDS011;4386;51.236;6.742;2023-02-17T04:27:24;12.35;;;9.43;;
8698;SDS011;4386;51.236;6.742;2023-02-17T04:28:25;15.30;;;10.48;;
8698;SDS011;4386;51.236;6.742;2023-02-17T04:29:28;10.50;;;8.85;;
8698;SDS011;4386;51.236;6.742;2023-02-17T04:30:29;13.55;;;9.95;;
8698;SDS011;4386;51.236;6.742;2023-02-17T04:31:32;14.85;;;9.70;;
8698;SDS011;4386;51.236;6.742;2023-02-17T04:32:34;11.70;;;9.73;;
8698;SDS011;4386;51.236;6.742;2023-02-17T04:33:36;13.80;;;10.57;;
8698;SDS011;4386;51.236;6.742;2023-02-17T04:34:38;12.60;;;10.70;;
8698;SDS011;4386;51.236;6.742;2023-02-17T04:35:41;11.50;;;8.95;;
8698;SDS011;4386;51.236;6.742;2023-02-17T04:36:54;12.70;;;10.27;;
8698;SDS011;4386;51.236;6.742;2023-02-17T04:37:57;11.75;;;9.48;;
8698;SDS011;4386;51.236;6.742;2023-02-17T04:38:58;12.70;;;9.52;;
8698;SDS011;4386;51.236;6.742;2023-02-17T04:40:11;11.13;;;9.20;;
8698;SDS011;4386;51.236;6.742;2023-02-17T04:41:13;11.18;;;9.70;;
8698;SDS011;4386;51.236;6.742;2023-02-17T04:42:16;12.55;;;10.10;;
8698;SDS011;4386;51.236;6.742;2023-02-17T04:43:20;10.75;;;9.20;;
8698;SDS011;4386;51.236;6.742;2023-02-17T04:44:23;11.65;;;9.48;;
8698;SDS011;4386;51.236;6.742;2023-02-17T04:45:24;12.48;;;10.85;;
8698;SDS011;4386;51.236;6.742;2023-02-17T04:46:27;10.65;;;9.52;;
8698;SDS011;4386;51.236;6.742;2023-02-17T04:47:29;9.30;;;8.07;;
8698;SDS011;4386;51.236;6.742;2023-02-17T04:48:32;12.57;;;9.65;;
8698;SDS011;4386;51.236;6.742;2023-02-17T04:49:34;9.70;;;8.63;;
8698;SDS011;4386;51.236;6.742;2023-02-17T04:50:46;11.45;;;8.77;;
8698;SDS011;4386;51.236;6.742;2023-02-17T04:51:48;11.82;;;8.52;;
8698;SDS011;4386;51.236;6.742;2023-02-17T04:52:52;11.65;;;9.60;;
8698;SDS011;4386;51.236;6.742;2023-02-17T04:53:54;12.15;;;8.57;;
8698;SDS011;4386;51.236;6.742;2023-02-17T04:54:56;11.20;;;8.90;;
8698;SDS011;4386;51.236;6.742;2023-02-17T04:56:08;15.45;;;10.68;;
8698;SDS011;4386;51.236;6.742;2023-02-17T04:57:10;12.38;;;9.27;;
8698;SDS011;4386;51.236;6.742;2023-02-17T04:58:12;11.45;;;9.20;;
8698;SDS011;4386;51.236;6.742;2023-02-17T04:59:15;11.00;;;9.30;;
8698;SDS011;4386;51.236;6.742;2023-02-17T05:00:16;9.65;;;8.68;;
8698;SDS011;4386;51.236;6.742;2023-02-17T05:01:20;10.68;;;8.68;;
8698;SDS011;4386;51.236;6.742;2023-02-17T05:02:22;12.32;;;9.43;;
8698;SDS011;4386;51.236;6.742;2023-02-17T05:03:26;13.63;;;9.10;;
8698;SDS011;4386;51.236;6.742;2023-02-17T05:04:29;12.00;;;9.07;;
8698;SDS011;4386;51.236;6.742;2023-02-17T05:05:31;12.43;;;9.10;;
8698;SDS011;4386;51.236;6.742;2023-02-17T05:06:35;12.13;;;9.02;;
8698;SDS011;4386;51.236;6.742;2023-02-17T05:07:36;13.32;;;9.93;;
8698;SDS011;4386;51.236;6.742;2023-02-17T05:08:43;9.57;;;7.90;;
8698;SDS011;4386;51.236;6.742;2023-02-17T05:09:45;15.82;;;9.40;;
8698;SDS011;4386;51.236;6.742;2023-02-17T05:10:48;13.27;;;9.18;;
8698;SDS011;4386;51.236;6.742;2023-02-17T05:11:50;12.98;;;9.55;;
8698;SDS011;4386;51.236;6.742;2023-02-17T05:12:53;11.35;;;8.93;;
8698;SDS011;4386;51.236;6.742;2023-02-17T05:13:54;12.50;;;8.20;;
8698;SDS011;4386;51.236;6.742;2023-02-17T05:14:57;17.02;;;8.68;;
8698;SDS011;4386;51.236;6.742;2023-02-17T05:15:58;14.05;;;10.00;;
8698;SDS011;4386;51.236;6.742;2023-02-17T05:17:02;12.18;;;9.73;;
8698;SDS011;4386;51.236;6.742;2023-02-17T05:18:13;12.50;;;9.73;;
8698;SDS011;4386;51.236;6.742;2023-02-17T05:19:24;12.65;;;9.70;;
8698;SDS011;4386;51.236;6.742;2023-02-17T05:20:31;10.98;;;8.80;;
8698;SDS011;4386;51.236;6.742;2023-02-17T05:21:34;13.02;;;9.25;;
8698;SDS011;4386;51.236;6.742;2023-02-17T05:22:35;10.50;;;8.85;;
8698;SDS011;4386;51.236;6.742;2023-02-17T05:23:38;10.07;;;8.75;;
8698;SDS011;4386;51.236;6.742;2023-02-17T05:24:42;10.15;;;9.05;;
8698;SDS011;4386;51.236;6.742;2023-02-17T05:25:45;12.23;;;8.52;;
8698;SDS011;4386;51.236;6.742;2023-02-17T05:26:46;10.15;;;8.48;;
8698;SDS011;4386;51.236;6.742;2023-02-17T05:27:49;12.52;;;9.23;;
8698;SDS011;4386;51.236;6.742;2023-02-17T05:28:51;8.90;;;8.00;;
8698;SDS011;4386;51.236;6.742;2023-02-17T05:29:53;10.32;;;8.27;;
8698;SDS011;4386;51.236;6.742;2023-02-17T05:30:55;10.60;;;8.50;;
8698;SDS011;4386;51.236;6.742;2023-02-17T05:32:01;11.32;;;8.68;;
8698;SDS011;4386;51.236;6.742;2023-02-17T05:33:03;11.93;;;8.50;;
8698;SDS011;4386;51.236;6.742;2023-02-17T05:34:06;10.10;;;8.05;;
8698;SDS011;4386;51.236;6.742;2023-02-17T05:35:07;12.23;;;9.57;;
8698;SDS011;4386;51.236;6.742;2023-02-17T05:36:10;9.65;;;8.27;;
8698;SDS011;4386;51.236;6.742;2023-02-17T05:37:12;11.13;;;8.25;;
8698;SDS011;4386;51.236;6.742;2023-02-17T05:38:15;10.88;;;8.38;;
8698;SDS011;4386;51.236;6.742;2023-02-17T05:39:17;16.90;;;8.75;;
8698;SDS011;4386;51.236;6.742;2023-02-17T05:40:20;10.68;;;8.75;;
8698;SDS011;4386;51.236;6.742;2023-02-17T05:41:23;18.15;;;8.50;;
8698;SDS011;4386;51.236;6.742;2023-02-17T05:42:25;11.38;;;8.55;;
8698;SDS011;4386;51.236;6.742;2023-02-17T05:43:38;9.35;;;7.53;;
8698;SDS011;4386;51.236;6.742;2023-02-17T05:44:51;9.38;;;8.32;;
8698;SDS011;4386;51.236;6.742;2023-02-17T05:45:53;9.70;;;7.82;;
8698;SDS011;4386;51.236;6.742;2023-02-17T05:46:57;10.25;;;8.05;;
8698;SDS011;4386;51.236;6.742;2023-02-17T05:47:59;12.25;;;8.77;;
8698;SDS011;4386;51.236;6.742;2023-02-17T05:49:02;10.45;;;8.32;;
8698;SDS011;4386;51.236;6.742;2023-02-17T05:50:04;12.43;;;7.65;;
8698;SDS011;4386;51.236;6.742;2023-02-17T05:51:07;11.50;;;7.88;;
8698;SDS011;4386;51.236;6.742;2023-02-17T05:52:09;13.05;;;8.60;;
8698;SDS011;4386;51.236;6.742;2023-02-17T05:53:11;12.32;;;8.32;;
8698;SDS011;4386;51.236;6.742;2023-02-17T05:54:13;10.25;;;8.10;;
8698;SDS011;4386;51.236;6.742;2023-02-17T05:55:16;11.68;;;8.90;;
8698;SDS011;4386;51.236;6.742;2023-02-17T05:56:19;12.35;;;9.43;;
8698;SDS011;4386;51.236;6.742;2023-02-17T05:57:21;10.25;;;7.82;;
8698;SDS011;4386;51.236;6.742;2023-02-17T05:58:23;9.73;;;8.70;;
8698;SDS011;4386;51.236;6.742;2023-02-17T05:59:37;9.20;;;8.25;;
8698;SDS011;4386;51.236;6.742;2023-02-17T06:00:39;9.77;;;7.60;;
8698;SDS011;4386;51.236;6.742;2023-02-17T06:01:42;9.75;;;7.45;;
8698;SDS011;4386;51.236;6.742;2023-02-17T06:02:52;12.88;;;8.43;;
8698;SDS011;4386;51.236;6.742;2023-02-17T06:03:54;9.15;;;7.95;;
8698;SDS011;4386;51.236;6.742;2023-02-17T06:04:57;9.77;;;8.00;;
8698;SDS011;4386;51.236;6.742;2023-02-17T06:06:06;20.30;;;7.90;;
8698;SDS011;4386;51.236;6.742;2023-02-17T06:07:09;13.30;;;8.80;;
8698;SDS011;4386;51.236;6.742;2023-02-17T06:08:11;11.48;;;7.85;;
8698;SDS011;4386;51.236;6.742;2023-02-17T06:09:13;11.43;;;8.60;;
8698;SDS011;4386;51.236;6.742;2023-02-17T06:10:16;11.88;;;8.68;;
8698;SDS011;4386;51.236;6.742;2023-02-17T06:11:17;10.63;;;8.93;;
8698;SDS011;4386;51.236;6.742;2023-02-17T06:12:21;8.48;;;7.45;;
8698;SDS011;4386;51.236;6.742;2023-02-17T06:13:23;8.98;;;7.63;;
8698;SDS011;4386;51.236;6.742;2023-02-17T06:14:26;10.57;;;8.00;;
8698;SDS011;4386;51.236;6.742;2023-02-17T06:15:27;10.45;;;8.38;;
8698;SDS011;4386;51.236;6.742;2023-02-17T06:16:31;18.13;;;8.70;;
8698;SDS011;4386;51.236;6.742;2023-02-17T06:17:32;9.02;;;8.10;;
8698;SDS011;4386;51.236;6.742;2023-02-17T06:18:36;8.77;;;7.88;;
8698;SDS011;4386;51.236;6.742;2023-02-17T06:19:40;11.40;;;7.72;;
8698;SDS011;4386;51.236;6.742;2023-02-17T06:20:42;9.82;;;8.60;;
8698;SDS011;4386;51.236;6.742;2023-02-17T06:21:44;10.15;;;8.68;;
8698;SDS011;4386;51.236;6.742;2023-02-17T06:22:47;9.27;;;8.30;;
8698;SDS011;4386;51.236;6.742;2023-02-17T06:23:49;11.55;;;8.75;;
8698;SDS011;4386;51.236;6.742;2023-02-17T06:24:52;9.32;;;8.23;;
8698;SDS011;4386;51.236;6.742;2023-02-17T06:25:54;9.90;;;8.45;;
8698;SDS011;4386;51.236;6.742;2023-02-17T06:26:57;10.15;;;7.93;;
8698;SDS011;4386;51.236;6.742;2023-02-17T06:28:00;11.63;;;9.18;;
8698;SDS011;4386;51.236;6.742;2023-02-17T06:29:02;11.05;;;8.40;;
8698;SDS011;4386;51.236;6.742;2023-02-17T06:30:05;9.98;;;8.13;;
8698;SDS011;4386;51.236;6.742;2023-02-17T06:31:10;10.52;;;8.20;;
8698;SDS011;4386;51.236;6.742;2023-02-17T06:32:17;13.45;;;8.98;;
8698;SDS011;4386;51.236;6.742;2023-02-17T06:33:27;10.90;;;8.32;;
8698;SDS011;4386;51.236;6.742;2023-02-17T06:34:29;13.07;;;9.23;;
8698;SDS011;4386;51.236;6.742;2023-02-17T06:35:31;10.23;;;8.45;;
8698;SDS011;4386;51.236;6.742;2023-02-17T06:36:44;11.57;;;9.65;;
8698;SDS011;4386;51.236;6.742;2023-02-17T06:37:46;16.77;;;10.40;;
8698;SDS011;4386;51.236;6.742;2023-02-17T06:38:48;10.57;;;8.75;;
8698;SDS011;4386;51.236;6.742;2023-02-17T06:40:01;11.35;;;8.80;;
8698;SDS011;4386;51.236;6.742;2023-02-17T06:41:03;13.68;;;8.80;;
8698;SDS011;4386;51.236;6.742;2023-02-17T06:42:16;11.93;;;8.50;;
8698;SDS011;4386;51.236;6.742;2023-02-17T06:43:19;10.52;;;8.50;;
8698;SDS011;4386;51.236;6.742;2023-02-17T06:44:31;9.38;;;8.38;;
8698;SDS011;4386;51.236;6.742;2023-02-17T06:45:43;11.07;;;8.60;;
8698;SDS011;4386;51.236;6.742;2023-02-17T06:46:45;10.77;;;8.15;;
8698;SDS011;4386;51.236;6.742;2023-02-17T06:47:48;11.13;;;8.40;;
8698;SDS011;4386;51.236;6.742;2023-02-17T06:48:50;8.85;;;7.72;;
8698;SDS011;4386;51.236;6.742;2023-02-17T06:49:53;10.73;;;8.50;;
8698;SDS011;4386;51.236;6.742;2023-02-17T06:50:56;12.65;;;8.60;;
8698;SDS011;4386;51.236;6.742;2023-02-17T06:51:59;8.90;;;8.00;;
8698;SDS011;4386;51.236;6.742;2023-02-17T06:53:05;13.88;;;8.98;;
8698;SDS011;4386;51.236;6.742;2023-02-17T06:54:08;10.88;;;8.65;;
8698;SDS011;4386;51.236;6.742;2023-02-17T06:55:10;11.02;;;8.15;;
8698;SDS011;4386;51.236;6.742;2023-02-17T06:56:12;10.88;;;8.40;;
8698;SDS011;4386;51.236;6.742;2023-02-17T06:57:16;11.65;;;9.07;;
8698;SDS011;4386;51.236;6.742;2023-02-17T06:58:18;12.82;;;9.85;;
8698;SDS011;4386;51.236;6.742;2023-02-17T06:59:21;13.05;;;7.93;;
8698;SDS011;4386;51.236;6.742;2023-02-17T07:00:23;11.02;;;8.48;;
8698;SDS011;4386;51.236;6.742;2023-02-17T07:01:28;9.38;;;8.38;;
8698;SDS011;4386;51.236;6.742;2023-02-17T07:02:30;9.93;;;7.80;;
8698;SDS011;4386;51.236;6.742;2023-02-17T07:03:33;10.05;;;7.68;;
8698;SDS011;4386;51.236;6.742;2023-02-17T07:04:35;8.68;;;7.78;;
8698;SDS011;4386;51.236;6.742;2023-02-17T07:05:37;9.98;;;7.85;;
8698;SDS011;4386;51.236;6.742;2023-02-17T07:06:40;9.00;;;8.10;;
8698;SDS011;4386;51.236;6.742;2023-02-17T07:07:46;10.50;;;8.93;;
8698;SDS011;4386;51.236;6.742;2023-02-17T07:08:56;11.15;;;8.05;;
8698;SDS011;4386;51.236;6.742;2023-02-17T07:10:09;13.48;;;8.88;;
8698;SDS011;4386;51.236;6.742;2023-02-17T07:11:21;14.50;;;8.40;;
8698;SDS011;4386;51.236;6.742;2023-02-17T07:12:26;18.27;;;8.55;;
8698;SDS011;4386;51.236;6.742;2023-02-17T07:13:28;9.80;;;8.23;;
8698;SDS011;4386;51.236;6.742;2023-02-17T07:14:31;10.13;;;8.55;;
8698;SDS011;4386;51.236;6.742;2023-02-17T07:15:34;11.73;;;8.70;;
8698;SDS011;4386;51.236;6.742;2023-02-17T07:16:37;20.80;;;9.13;;
8698;SDS011;4386;51.236;6.742;2023-02-17T07:17:39;11.15;;;8.25;;
8698;SDS011;4386;51.236;6.742;2023-02-17T07:18:42;15.90;;;8.10;;
8698;SDS011;4386;51.236;6.742;2023-02-17T07:19:46;10.05;;;8.63;;
8698;SDS011;4386;51.236;6.742;2023-02-17T07:20:48;11.02;;;8.30;;
8698;SDS011;4386;51.236;6.742;2023-02-17T07:21:50;10.95;;;8.07;;
8698;SDS011;4386;51.236;6.742;2023-02-17T07:22:52;9.98;;;7.55;;
8698;SDS011;4386;51.236;6.742;2023-02-17T07:23:55;8.82;;;7.82;;
8698;SDS011;4386;51.236;6.742;2023-02-17T07:24:56;11.65;;;8.13;;
8698;SDS011;4386;51.236;6.742;2023-02-17T07:26:00;10.57;;;8.65;;
8698;SDS011;4386;51.236;6.742;2023-02-17T07:27:12;9.63;;;7.82;;
8698;SDS011;4386;51.236;6.742;2023-02-17T07:28:27;16.48;;;7.90;;
8698;SDS011;4386;51.236;6.742;2023-02-17T07:29:39;11.95;;;7.90;;
8698;SDS011;4386;51.236;6.742;2023-02-17T07:30:42;8.30;;;7.50;;
8698;SDS011;4386;51.236;6.742;2023-02-17T07:31:54;9.43;;;7.53;;
8698;SDS011;4386;51.236;6.742;2023-02-17T07:32:57;13.55;;;8.55;;